Time;durP1;ratioP1;P1;durP2;ratioP2;P2;SDS_P1;SDS_P2;PMS_P1;PMS_P2;Temp;Humidity;BMP_temperature;BMP_pressure;BME280_temperature;BME280_humidity;BME280_pressure;Samples;Min_cycle;Max_cycle;Signal;HPM_P1;HPM_P2
2021/09/05 00:04:37;;;;;;;7.00;4.60;;;;;;;11.38;74.97;101278.45;226989;1206;138835;-73
2021/09/05 00:09:41;;;;;;;6.90;4.80;;;;;;;11.38;75.50;101281.91;227003;1208;139789;-73
2021/09/05 00:14:42;;;;;;;5.90;4.60;;;;;;;11.42;75.48;101280.22;226951;1206;138513;-73
2021/09/05 00:19:44;;;;;;;7.40;4.80;;;;;;;11.39;75.65;101280.67;226915;1208;138259;-70
2021/09/05 00:24:45;;;;;;;7.80;4.80;;;;;;;11.33;75.57;101290.86;226893;1208;138856;-73
2021/09/05 00:29:47;;;;;;;6.00;4.80;;;;;;;11.24;75.81;101288.89;226931;1208;138933;-73
2021/09/05 00:34:48;;;;;;;6.30;4.90;;;;;;;11.15;75.38;101290.73;226904;1208;138396;-72
2021/09/05 00:39:50;;;;;;;4.60;4.20;;;;;;;11.11;75.10;101293.04;226962;1208;138729;-74
2021/09/05 00:44:53;;;;;;;5.80;4.50;;;;;;;11.10;74.81;101295.76;227023;1206;141117;-72
2021/09/05 00:49:55;;;;;;;6.60;3.90;;;;;;;11.18;74.00;101298.59;227024;1208;138802;-73
2021/09/05 00:54:56;;;;;;;5.70;4.20;;;;;;;11.25;73.05;101304.06;226916;1208;138671;-72
2021/09/05 00:59:59;;;;;;;4.80;3.90;;;;;;;11.24;72.54;101306.27;226975;1204;138640;-73
2021/09/05 01:05:00;;;;;;;4.40;3.70;;;;;;;11.17;72.90;101305.33;226999;1208;138580;-73
2021/09/05 01:10:02;;;;;;;5.20;3.80;;;;;;;11.09;73.04;101310.46;226987;1208;138049;-73
2021/09/05 01:15:06;;;;;;;4.30;3.40;;;;;;;11.03;73.30;101318.20;226968;1205;138610;-73
2021/09/05 01:20:09;;;;;;;4.20;3.80;;;;;;;10.94;73.85;101316.69;227079;1208;137970;-75
2021/09/05 01:25:11;;;;;;;4.30;3.70;;;;;;;10.87;73.92;101320.64;227079;1206;138811;-74
2021/09/05 01:30:12;;;;;;;4.10;3.70;;;;;;;10.89;73.54;101324.66;227414;1202;141902;-73
2021/09/05 01:35:14;;;;;;;4.20;3.30;;;;;;;10.88;73.24;101331.86;229466;1206;138443;-71
2021/09/05 01:40:15;;;;;;;4.90;3.50;;;;;;;10.87;73.34;101337.57;233921;1201;137052;-74
2021/09/05 01:45:17;;;;;;;5.70;3.70;;;;;;;10.84;73.64;101339.42;229175;1201;138127;-73
2021/09/05 01:50:19;;;;;;;4.50;3.80;;;;;;;10.75;73.45;101341.23;226986;1208;138378;-72
2021/09/05 01:55:20;;;;;;;3.90;3.30;;;;;;;10.67;73.66;101351.48;227010;1201;138748;-73
2021/09/05 02:00:22;;;;;;;4.10;3.70;;;;;;;10.60;73.89;101353.81;226932;1208;138772;-73
2021/09/05 02:05:23;;;;;;;4.90;3.60;;;;;;;10.57;74.13;101359.85;226971;1208;138948;-72
2021/09/05 02:10:25;;;;;;;4.70;3.90;;;;;;;10.57;73.39;101362.13;226989;1208;139166;-73
2021/09/05 02:15:28;;;;;;;3.80;3.20;;;;;;;10.51;73.97;101365.80;227027;1208;138123;-73
2021/09/05 02:20:29;;;;;;;3.90;3.30;;;;;;;10.47;74.53;101370.05;226949;1201;138760;-72
2021/09/05 02:25:31;;;;;;;4.30;3.60;;;;;;;10.35;74.78;101372.48;226902;1208;138255;-72
2021/09/05 02:30:34;;;;;;;4.40;3.10;;;;;;;10.22;75.37;101376.48;226865;1208;138291;-72
2021/09/05 02:35:36;;;;;;;3.70;3.30;;;;;;;10.12;75.54;101374.49;226880;1208;138799;-72
2021/09/05 02:40:38;;;;;;;3.40;3.10;;;;;;;10.04;76.19;101377.55;226917;1208;139135;-73
2021/09/05 02:45:39;;;;;;;3.70;3.30;;;;;;;10.00;76.45;101376.52;226948;1206;140143;-73
2021/09/05 02:50:42;;;;;;;5.20;3.60;;;;;;;10.03;76.51;101377.90;227115;1202;139773;-74
2021/09/05 02:55:44;;;;;;;4.60;3.50;;;;;;;9.99;76.32;101382.20;228538;1208;139159;-73
2021/09/05 03:00:45;;;;;;;4.00;3.40;;;;;;;9.93;76.04;101382.78;229761;1208;138433;-73
2021/09/05 03:05:47;;;;;;;3.60;3.20;;;;;;;9.82;76.63;101388.76;226908;1208;138890;-72
2021/09/05 03:10:48;;;;;;;3.50;3.10;;;;;;;9.78;76.99;101388.05;226943;1208;138408;-74
2021/09/05 03:15:50;;;;;;;4.20;3.30;;;;;;;9.61;77.14;101396.40;226998;1208;138320;-75
2021/09/05 03:20:51;;;;;;;4.30;3.70;;;;;;;9.43;77.63;101400.33;226999;1208;140152;-72
2021/09/05 03:25:53;;;;;;;7.30;3.90;;;;;;;9.38;78.00;101403.88;227000;1208;138249;-73
2021/09/05 03:30:55;;;;;;;4.60;3.60;;;;;;;9.35;77.88;101410.07;227126;1202;138197;-72
2021/09/05 03:35:57;;;;;;;4.10;3.30;;;;;;;9.22;77.95;101408.44;226995;1201;138296;-73
2021/09/05 03:40:58;;;;;;;5.30;3.40;;;;;;;9.19;78.59;101413.61;226920;1201;138623;-73
2021/09/05 03:46:00;;;;;;;3.30;3.00;;;;;;;9.20;78.52;101414.45;227015;1208;138960;-73
2021/09/05 03:51:02;;;;;;;4.10;3.10;;;;;;;9.18;78.83;101420.73;226910;1208;138646;-73
2021/09/05 03:56:04;;;;;;;4.60;3.50;;;;;;;9.23;78.63;101425.44;226939;1201;138653;-73
2021/09/05 04:01:06;;;;;;;4.10;3.50;;;;;;;9.20;78.37;101428.54;226954;1201;138563;-71
2021/09/05 04:06:07;;;;;;;4.10;3.60;;;;;;;9.22;78.28;101434.45;227022;1208;138864;-70
2021/09/05 04:11:09;;;;;;;6.10;4.10;;;;;;;9.31;78.46;101443.77;226878;1208;138144;-73
2021/09/05 04:16:11;;;;;;;6.40;4.20;;;;;;;9.39;78.53;101449.51;226858;1208;138186;-71
2021/09/05 04:21:13;;;;;;;5.30;4.00;;;;;;;9.41;78.70;101452.15;226888;1208;138594;-73
2021/09/05 04:26:14;;;;;;;5.30;4.00;;;;;;;9.46;79.14;101459.17;227307;1201;138446;-74
2021/09/05 04:31:16;;;;;;;7.70;3.60;;;;;;;9.61;78.26;101467.34;226855;1208;138264;-74
2021/09/05 04:36:17;;;;;;;6.40;3.90;;;;;;;9.62;78.69;101468.83;227027;1208;138555;-73
2021/09/05 04:41:19;;;;;;;7.40;4.30;;;;;;;9.69;78.61;101472.87;226833;1208;137980;-74
2021/09/05 04:46:21;;;;;;;5.30;3.80;;;;;;;9.72;78.51;101477.74;226890;1201;138409;-73
2021/09/05 04:51:22;;;;;;;5.80;4.40;;;;;;;9.79;78.29;101479.61;226871;1201;138980;-75
2021/09/05 04:56:24;;;;;;;4.40;4.00;;;;;;;9.91;77.89;101481.16;226947;1208;138894;-76
2021/09/05 05:01:26;;;;;;;4.30;3.70;;;;;;;10.02;77.42;101488.70;226900;1208;138494;-75
2021/09/05 05:06:27;;;;;;;4.60;4.20;;;;;;;10.09;77.25;101490.33;227004;1201;138751;-76
2021/09/05 05:11:29;;;;;;;4.30;3.80;;;;;;;10.06;77.47;101493.46;226886;1202;139090;-74
2021/09/05 05:16:31;;;;;;;5.30;4.30;;;;;;;10.06;77.63;101500.69;227236;1201;138249;-70
2021/09/05 05:21:33;;;;;;;4.50;4.10;;;;;;;10.11;77.53;101502.42;227315;1201;139494;-67
2021/09/05 05:26:34;;;;;;;5.10;3.60;;;;;;;10.23;77.02;101503.81;227095;1207;139652;-72
2021/09/05 05:31:36;;;;;;;4.00;3.40;;;;;;;10.33;76.61;101504.42;227099;1201;138953;-71
2021/09/05 05:36:37;;;;;;;5.10;3.70;;;;;;;10.38;76.58;101518.48;227030;1208;138680;-72
2021/09/05 05:41:39;;;;;;;4.40;3.80;;;;;;;10.37;76.38;101516.05;226955;1201;138778;-74
2021/09/05 05:46:41;;;;;;;4.30;3.90;;;;;;;10.34;76.60;101521.23;227055;1201;138758;-74
2021/09/05 05:51:42;;;;;;;5.20;4.10;;;;;;;10.33;76.59;101521.51;226962;1208;138550;-76
2021/09/05 05:56:44;;;;;;;5.40;4.20;;;;;;;10.37;76.31;101525.39;226930;1208;139193;-74
2021/09/05 06:01:45;;;;;;;4.40;3.90;;;;;;;10.50;75.98;101527.36;227030;1208;139040;-77
2021/09/05 06:06:47;;;;;;;4.00;3.50;;;;;;;10.63;75.41;101531.91;227179;1208;138550;-71
2021/09/05 06:11:49;;;;;;;3.50;3.20;;;;;;;10.69;75.31;101539.74;227183;1206;138719;-73
2021/09/05 06:16:51;;;;;;;3.30;3.00;;;;;;;10.75;75.26;101545.70;226951;1201;138662;-71
2021/09/05 06:21:53;;;;;;;3.00;2.70;;;;;;;10.80;75.12;101549.36;226978;1208;140767;-75
2021/09/05 06:26:55;;;;;;;3.50;2.60;;;;;;;10.85;75.29;101548.95;227750;1208;139192;-70
2021/09/05 06:31:56;;;;;;;2.70;2.50;;;;;;;10.94;75.25;101555.64;227402;1201;139353;-75
2021/09/05 06:36:58;;;;;;;4.40;3.20;;;;;;;11.08;74.73;101563.27;227803;1208;139155;-73
2021/09/05 06:42:00;;;;;;;3.50;2.00;;;;;;;11.23;74.21;101565.73;228075;1208;138123;-74
2021/09/05 06:47:01;;;;;;;3.20;2.10;;;;;;;11.32;73.79;101569.05;227711;1201;138690;-73
2021/09/05 06:52:03;;;;;;;1.80;1.70;;;;;;;11.36;73.68;101572.56;226998;1201;139399;-73
2021/09/05 06:57:06;;;;;;;2.60;1.50;;;;;;;11.36;73.32;101571.66;226963;1208;138713;-74
2021/09/05 07:02:08;;;;;;;2.00;1.60;;;;;;;11.38;72.69;101577.71;226861;1208;151284;-73
2021/09/05 07:07:10;;;;;;;1.90;1.10;;;;;;;11.45;72.29;101584.16;226933;1208;139322;-72
2021/09/05 07:12:11;;;;;;;0.80;0.80;;;;;;;11.62;70.92;101589.59;226894;1208;139629;-74
2021/09/05 07:17:13;;;;;;;2.10;0.80;;;;;;;11.76;69.19;101591.23;227059;1201;138545;-74
2021/09/05 07:22:14;;;;;;;0.70;0.70;;;;;;;11.82;68.67;101597.10;227023;1208;138546;-73
2021/09/05 07:27:16;;;;;;;1.30;0.90;;;;;;;11.84;67.90;101601.39;226952;1208;137995;-74
2021/09/05 07:32:18;;;;;;;2.20;1.10;;;;;;;11.86;67.72;101606.11;229095;1208;138554;-74
2021/09/05 07:37:20;;;;;;;1.50;1.40;;;;;;;11.89;67.52;101607.83;230584;1208;138343;-75
2021/09/05 07:42:22;;;;;;;1.10;1.10;;;;;;;11.92;67.04;101609.09;228573;1201;139400;-76
2021/09/05 07:47:24;;;;;;;3.30;1.10;;;;;;;11.97;67.13;101613.08;228262;1201;139234;-75
2021/09/05 07:52:26;;;;;;;1.10;1.00;;;;;;;12.04;66.36;101616.27;227236;1201;138977;-75
2021/09/05 07:57:27;;;;;;;5.80;4.50;;;;;;;12.23;64.91;101622.39;227031;1201;139864;-75
2021/09/05 08:02:29;;;;;;;2.20;1.90;;;;;;;12.34;63.30;101623.15;226998;1208;138873;-75
2021/09/05 08:07:31;;;;;;;1.90;0.80;;;;;;;12.42;61.06;101627.21;227831;1201;139142;-77
2021/09/05 08:12:32;;;;;;;1.00;0.90;;;;;;;12.43;60.16;101627.31;227821;1201;138466;-73
2021/09/05 08:17:34;;;;;;;2.10;1.90;;;;;;;12.48;60.24;101628.06;227018;1208;138302;-74
2021/09/05 08:22:36;;;;;;;3.40;3.00;;;;;;;12.49;59.72;101633.86;227123;1201;138229;-73
2021/09/05 08:27:39;;;;;;;3.30;3.00;;;;;;;12.52;58.42;101632.40;227474;1201;138596;-74
2021/09/05 08:32:40;;;;;;;1.70;1.40;;;;;;;12.64;57.80;101635.06;227000;1208;138320;-74
2021/09/05 08:37:42;;;;;;;1.70;1.40;;;;;;;12.63;57.51;101634.41;227421;1208;139079;-74
2021/09/05 08:42:44;;;;;;;1.40;1.00;;;;;;;12.69;57.68;101643.75;226989;1201;139067;-76
2021/09/05 08:47:47;;;;;;;0.60;0.60;;;;;;;12.78;56.84;101642.64;226988;1208;139707;-74
2021/09/05 08:52:48;;;;;;;0.60;0.50;;;;;;;12.90;54.52;101644.67;226966;1208;139180;-73
2021/09/05 08:57:50;;;;;;;0.70;0.60;;;;;;;13.07;53.76;101641.60;226959;1201;138360;-74
2021/09/05 09:02:55;;;;;;;0.40;0.40;;;;;;;13.10;54.41;101641.35;227253;1201;138939;-74
2021/09/05 09:08:04;;;;;;;1.30;0.80;;;;;;;13.15;54.17;101641.05;227207;1201;138599;-74
2021/09/05 09:13:06;;;;;;;0.90;0.50;;;;;;;13.23;54.36;101642.97;227034;1201;138809;-72
2021/09/05 09:18:08;;;;;;;0.50;0.50;;;;;;;13.28;53.87;101638.81;227090;1208;139322;-74
2021/09/05 09:23:18;;;;;;;2.30;2.10;;;;;;;13.35;53.31;101638.70;227064;1208;138856;-73
2021/09/05 09:28:35;;;;;;;2.10;0.70;;;;;;;13.47;53.87;101637.83;227073;1208;138794;-74
2021/09/05 09:33:38;;;;;;;0.60;0.40;;;;;;;13.67;53.82;101636.48;227121;1202;138118;-73
2021/09/05 09:38:43;;;;;;;2.90;1.00;;;;;;;13.88;53.64;101634.84;227062;1201;138370;-72
2021/09/05 09:43:58;;;;;;;0.50;0.40;;;;;;;13.99;53.45;101632.40;227512;1208;138592;-73
2021/09/05 09:49:06;;;;;;;0.80;0.40;;;;;;;13.93;52.82;101628.94;227168;1208;138632;-73
2021/09/05 09:54:08;;;;;;;1.50;0.50;;;;;;;14.05;53.87;101632.16;227220;1208;138773;-73
2021/09/05 09:59:10;;;;;;;0.60;0.40;;;;;;;14.35;52.88;101627.73;227163;1208;138360;-74
2021/09/05 10:04:13;;;;;;;2.10;0.40;;;;;;;14.46;51.92;101624.93;227522;1201;138537;-76
2021/09/05 10:09:19;;;;;;;2.00;1.10;;;;;;;14.52;51.86;101622.27;228223;1208;139012;-73
2021/09/05 10:14:23;;;;;;;1.00;0.50;;;;;;;14.24;53.25;101622.58;228348;1208;140944;-74
2021/09/05 10:19:25;;;;;;;0.70;0.40;;;;;;;14.28;51.63;101617.57;227318;1208;138626;-72
2021/09/05 10:24:41;;;;;;;0.40;0.40;;;;;;;14.53;51.77;101618.70;227071;1208;138695;-72
2021/09/05 10:30:09;;;;;;;1.20;0.60;;;;;;;14.79;51.13;101618.16;226943;1208;138514;-73
2021/09/05 10:35:26;;;;;;;0.50;0.40;;;;;;;15.07;50.82;101613.63;227032;1208;141664;-73
2021/09/05 10:40:42;;;;;;;0.40;0.40;;;;;;;15.41;50.16;101617.82;227354;1201;138687;-73
2021/09/05 10:45:50;;;;;;;3.00;0.40;;;;;;;15.67;49.18;101618.92;227059;1208;138895;-75
2021/09/05 10:50:51;;;;;;;0.40;0.40;;;;;;;15.59;49.52;101620.13;227142;1201;138338;-74
2021/09/05 10:56:07;;;;;;;0.30;0.30;;;;;;;15.87;49.06;101619.73;227165;1208;138649;-74
2021/09/05 11:01:18;;;;;;;0.80;0.60;;;;;;;16.15;46.78;101619.02;227889;1208;139235;-73
2021/09/05 11:06:34;;;;;;;0.70;0.40;;;;;;;16.56;46.52;101616.01;227171;1208;138479;-76
2021/09/05 11:11:56;;;;;;;0.40;0.40;;;;;;;17.02;45.49;101612.90;227062;1208;138199;-78
2021/09/05 11:16:58;;;;;;;1.50;0.50;;;;;;;17.52;44.32;101608.08;227123;1208;138562;-73
2021/09/05 11:22:04;;;;;;;0.50;0.40;;;;;;;17.08;45.77;101611.13;227303;1206;138648;-74
2021/09/05 11:27:09;;;;;;;0.40;0.40;;;;;;;16.01;48.90;101624.77;227429;1208;138215;-72
2021/09/05 11:32:12;;;;;;;0.30;0.30;;;;;;;16.45;47.13;101624.69;227123;1208;139181;-73
2021/09/05 11:37:25;;;;;;;0.80;0.60;;;;;;;16.67;47.05;101624.79;227184;1204;138353;-72
2021/09/05 11:42:27;;;;;;;0.50;0.40;;;;;;;15.97;49.71;101634.36;226901;1202;138428;-73
2021/09/05 11:47:29;;;;;;;0.90;0.80;;;;;;;15.72;49.53;101632.70;226974;1208;138622;-75
2021/09/05 11:52:33;;;;;;;1.30;0.80;;;;;;;15.78;48.34;101630.91;226865;1202;138904;-73
2021/09/05 11:57:38;;;;;;;0.80;0.80;;;;;;;16.28;45.74;101626.95;227067;1208;138255;-75
2021/09/05 12:02:39;;;;;;;1.70;1.10;;;;;;;16.91;43.86;101616.55;227575;1201;138535;-75
2021/09/05 12:07:41;;;;;;;1.00;0.50;;;;;;;16.96;43.96;101612.48;227229;1208;138696;-69
2021/09/05 12:12:55;;;;;;;0.60;0.60;;;;;;;16.13;45.99;101615.30;226995;1207;160670;-73
2021/09/05 12:17:57;;;;;;;0.90;0.80;;;;;;;15.66;48.51;101613.39;226894;1208;138602;-75
2021/09/05 12:22:59;;;;;;;0.70;0.60;;;;;;;16.17;48.42;101606.21;227275;1201;138614;-75
2021/09/05 12:28:09;;;;;;;3.90;3.60;;;;;;;16.38;47.70;101599.46;226961;1208;138161;-73
2021/09/05 12:33:12;;;;;;;5.50;5.00;;;;;;;16.65;45.60;101600.30;226995;1208;138497;-73
2021/09/05 12:38:30;;;;;;;2.10;1.70;;;;;;;16.63;44.71;101598.52;227082;1208;138254;-74
2021/09/05 12:43:54;;;;;;;1.00;0.90;;;;;;;16.73;43.15;101593.48;227194;1210;139476;-74
2021/09/05 12:48:55;;;;;;;1.90;0.70;;;;;;;16.56;42.06;101587.98;226715;1201;138734;-73
2021/09/05 12:54:01;;;;;;;0.80;0.50;;;;;;;16.59;42.65;101588.23;226945;1208;138590;-74
2021/09/05 12:59:03;;;;;;;1.20;0.80;;;;;;;16.58;43.12;101582.36;227266;1201;139226;-73
2021/09/05 13:04:05;;;;;;;2.20;1.70;;;;;;;16.65;44.78;101583.64;226946;1206;138760;-73
2021/09/05 13:09:07;;;;;;;2.40;1.10;;;;;;;16.68;44.93;101582.44;227041;1208;139118;-74
2021/09/05 13:14:09;;;;;;;0.80;0.40;;;;;;;16.72;44.35;101585.43;227063;1201;138362;-75
2021/09/05 13:19:12;;;;;;;0.60;0.60;;;;;;;17.88;41.10;101582.67;227225;1202;138277;-74
2021/09/05 13:24:14;;;;;;;0.70;0.50;;;;;;;18.42;40.64;101577.30;226995;1208;138185;-74
2021/09/05 13:29:15;;;;;;;0.80;0.60;;;;;;;17.98;40.25;101577.74;227363;1201;138371;-73
2021/09/05 13:34:17;;;;;;;1.90;1.00;;;;;;;17.65;39.98;101575.70;226941;1208;138861;-73
2021/09/05 13:39:19;;;;;;;0.70;0.70;;;;;;;17.40;41.32;101577.73;227307;1201;139185;-73
2021/09/05 13:44:20;;;;;;;0.70;0.50;;;;;;;17.21;42.62;101580.84;229401;1208;138690;-74
2021/09/05 13:49:22;;;;;;;0.90;0.50;;;;;;;16.99;42.92;101575.88;227973;1208;139581;-74
2021/09/05 13:54:24;;;;;;;1.10;0.80;;;;;;;16.94;44.15;101579.00;227758;1208;138859;-73
2021/09/05 13:59:25;;;;;;;2.00;1.30;;;;;;;16.78;43.59;101578.27;227148;1201;138654;-74
2021/09/05 14:04:27;;;;;;;0.90;0.60;;;;;;;16.71;42.50;101583.02;227388;1208;138526;-73
2021/09/05 14:09:29;;;;;;;0.70;0.60;;;;;;;16.50;43.77;101580.49;227101;1208;138469;-71
2021/09/05 14:14:30;;;;;;;0.70;0.60;;;;;;;16.32;44.14;101589.15;226892;1208;139245;-72
2021/09/05 14:19:33;;;;;;;1.20;1.10;;;;;;;16.56;44.34;101582.18;226969;1208;138793;-74
2021/09/05 14:24:36;;;;;;;1.70;1.00;;;;;;;16.61;42.10;101576.29;227046;1208;138245;-75
2021/09/05 14:56:12;;;;;;;0.60;0.50;;;;;;;16.26;42.77;101569.29;227752;1206;138590;-77
2021/09/05 15:01:19;;;;;;;0.30;0.30;;;;;;;16.20;42.44;101568.16;228296;1201;138672;-77
2021/09/05 15:11:51;;;;;;;0.40;0.40;;;;;;;16.16;43.45;101565.61;226723;1202;138621;-74
2021/09/05 15:16:53;;;;;;;0.40;0.30;;;;;;;16.09;42.86;101568.77;227034;1208;138334;-75
2021/09/05 15:27:06;;;;;;;0.60;0.50;;;;;;;16.03;43.29;101569.59;227167;1201;138277;-78
2021/09/05 15:38:21;;;;;;;2.20;0.80;;;;;;;15.96;45.10;101568.21;227092;1202;138958;-75
2021/09/05 15:59:10;;;;;;;0.40;0.40;;;;;;;15.76;45.10;101565.32;226917;1208;138724;-74
2021/09/05 16:20:24;;;;;;;1.10;0.70;;;;;;;15.53;45.02;101568.13;226895;1208;139028;-74
2021/09/05 16:25:25;;;;;;;2.00;0.70;;;;;;;15.48;46.49;101569.41;227329;1208;139685;-73
2021/09/05 16:30:33;;;;;;;1.20;0.90;;;;;;;15.42;45.70;101572.58;227502;1202;138746;-75
2021/09/05 16:40:55;;;;;;;1.40;1.30;;;;;;;15.26;46.26;101573.19;227174;1208;139255;-74
2021/09/05 16:45:57;;;;;;;1.40;0.60;;;;;;;15.19;47.23;101571.10;226948;1208;139196;-75
2021/09/05 16:50:59;;;;;;;1.80;0.90;;;;;;;15.11;48.19;101582.55;227056;1201;138043;-74
2021/09/05 16:56:00;;;;;;;1.00;0.90;;;;;;;15.01;48.84;101584.82;227099;1208;138983;-75
2021/09/05 17:01:03;;;;;;;1.50;1.00;;;;;;;14.83;49.74;101590.79;227266;1208;138958;-74
2021/09/05 17:06:05;;;;;;;1.40;1.00;;;;;;;14.66;51.04;101600.46;226882;1208;138156;-74
2021/09/05 17:11:06;;;;;;;1.10;0.90;;;;;;;14.53;51.74;101606.70;228266;1202;139207;-73
2021/09/05 17:16:08;;;;;;;2.50;1.20;;;;;;;14.34;53.26;101608.11;228290;1208;138762;-75
2021/09/05 17:21:10;;;;;;;1.60;1.40;;;;;;;14.21;53.76;101607.08;227315;1208;138913;-74
2021/09/05 17:26:11;;;;;;;1.90;1.60;;;;;;;14.08;54.61;101611.86;227386;1202;138681;-74
2021/09/05 17:31:13;;;;;;;3.40;1.90;;;;;;;13.98;55.64;101615.53;227584;1202;137973;-75
2021/09/05 17:36:15;;;;;;;4.00;1.80;;;;;;;13.86;56.50;101619.80;226827;1208;139006;-74
2021/09/05 17:41:17;;;;;;;6.40;2.00;;;;;;;13.74;57.18;101621.11;226890;1208;138279;-74
2021/09/05 17:46:19;;;;;;;3.20;1.80;;;;;;;13.61;58.45;101626.40;226886;1208;138360;-73
2021/09/05 17:51:20;;;;;;;1.70;1.20;;;;;;;13.40;59.03;101630.65;226925;1208;138413;-72
2021/09/05 17:56:22;;;;;;;3.70;1.60;;;;;;;13.22;60.45;101636.19;226844;1208;138722;-75
2021/09/05 18:01:24;;;;;;;8.60;2.00;;;;;;;13.06;61.36;101639.03;226044;1208;334538;-74
2021/09/05 18:06:26;;;;;;;5.30;1.90;;;;;;;12.93;61.58;101650.66;226784;1208;138472;-74
2021/09/05 18:11:27;;;;;;;3.70;2.50;;;;;;;12.79;62.89;101653.30;226902;1208;139034;-72
2021/09/05 18:16:32;;;;;;;4.20;2.10;;;;;;;12.68;63.39;101654.83;226834;1202;139243;-74
2021/09/05 18:21:33;;;;;;;6.10;3.90;;;;;;;12.64;64.25;101662.08;227113;1209;139098;-77
2021/09/05 18:26:35;;;;;;;10.40;5.20;;;;;;;12.55;65.44;101667.09;227026;1209;138522;-73
2021/09/05 18:31:39;;;;;;;9.30;6.10;;;;;;;12.49;66.03;101670.98;227153;1201;138887;-74
2021/09/05 18:36:40;;;;;;;10.80;7.20;;;;;;;12.39;66.60;101675.42;226970;1209;140916;-76
2021/09/05 18:41:42;;;;;;;8.70;6.80;;;;;;;12.31;66.71;101679.31;227006;1206;139164;-75
2021/09/05 18:46:44;;;;;;;9.60;7.40;;;;;;;12.22;67.16;101673.50;227321;1202;138299;-73
2021/09/05 18:51:46;;;;;;;11.30;7.50;;;;;;;12.12;66.98;101676.52;227340;1208;138576;-71
2021/09/05 18:56:48;;;;;;;9.90;6.60;;;;;;;11.99;67.74;101674.05;227079;1208;138330;-75
2021/09/05 19:01:49;;;;;;;10.10;7.00;;;;;;;11.87;68.23;101672.06;227491;1202;139358;-70
2021/09/05 19:06:51;;;;;;;9.40;7.20;;;;;;;11.88;68.00;101668.48;231138;1202;139529;-73
2021/09/05 19:11:53;;;;;;;9.40;5.80;;;;;;;11.79;68.17;101666.20;227539;1206;138753;-75
2021/09/05 19:16:54;;;;;;;8.30;5.80;;;;;;;11.76;68.05;101666.23;227033;1201;138390;-73
2021/09/05 19:21:57;;;;;;;6.70;6.00;;;;;;;11.70;68.16;101667.54;226822;1209;138281;-74
2021/09/05 19:26:58;;;;;;;8.70;6.10;;;;;;;11.74;67.34;101669.96;226823;1209;139064;-73
2021/09/05 19:32:00;;;;;;;8.10;6.20;;;;;;;11.76;67.05;101673.54;226822;1209;139348;-73
2021/09/05 19:37:02;;;;;;;9.50;6.20;;;;;;;11.67;67.25;101675.73;227121;1202;138605;-75
2021/09/05 19:42:04;;;;;;;8.70;7.60;;;;;;;11.60;67.93;101682.12;227133;1206;138376;-74
2021/09/05 19:47:06;;;;;;;9.50;7.50;;;;;;;11.48;68.84;101680.48;226985;1209;138256;-78
2021/09/05 19:52:08;;;;;;;13.10;9.60;;;;;;;11.37;69.51;101685.23;227077;1208;138527;-74
2021/09/05 19:57:10;;;;;;;16.30;13.70;;;;;;;11.27;70.19;101678.34;227433;1209;138599;-73
2021/09/05 20:02:13;;;;;;;18.10;16.10;;;;;;;11.15;71.08;101681.05;232017;1201;138683;-73
2021/09/05 20:07:14;;;;;;;24.60;20.30;;;;;;;11.12;70.97;101686.79;231952;1208;138653;-73
2021/09/05 20:12:16;;;;;;;23.60;18.90;;;;;;;11.05;71.51;101685.21;226972;1202;139656;-74
2021/09/05 20:17:18;;;;;;;22.40;19.30;;;;;;;11.13;70.22;101685.46;226953;1209;139078;-73
2021/09/05 20:22:20;;;;;;;21.10;16.10;;;;;;;11.01;70.91;101693.27;226983;1202;139137;-74
2021/09/05 20:27:21;;;;;;;19.30;16.60;;;;;;;10.92;71.15;101695.40;227092;1201;138498;-74
2021/09/05 20:32:23;;;;;;;17.60;14.60;;;;;;;10.93;70.77;101699.42;226978;1205;138974;-75
2021/09/05 20:37:25;;;;;;;15.90;14.20;;;;;;;10.87;70.67;101697.77;227601;1202;138706;-73
2021/09/05 20:42:27;;;;;;;16.80;14.70;;;;;;;10.71;71.41;101699.59;228536;1209;138953;-74
2021/09/05 20:47:29;;;;;;;18.10;13.50;;;;;;;10.65;71.62;101702.04;228909;1209;138906;-77
2021/09/05 20:52:33;;;;;;;14.30;12.90;;;;;;;10.55;71.59;101697.86;227040;1209;139265;-75
2021/09/05 20:57:39;;;;;;;14.20;12.70;;;;;;;10.49;72.38;101693.73;227019;1209;138518;-74
2021/09/05 21:02:42;;;;;;;13.00;11.60;;;;;;;10.47;72.43;101691.77;227417;1202;139028;-73
2021/09/05 21:07:43;;;;;;;14.70;13.10;;;;;;;10.46;72.20;101694.64;227179;1201;139395;-75
2021/09/05 21:12:45;;;;;;;14.00;12.50;;;;;;;10.59;70.61;101698.82;227283;1209;139567;-74
2021/09/05 21:17:47;;;;;;;15.20;13.50;;;;;;;10.56;70.67;101698.33;226852;1206;138692;-74
2021/09/05 21:22:49;;;;;;;15.10;13.20;;;;;;;10.38;71.54;101695.98;226951;1201;138510;-78
2021/09/05 21:27:50;;;;;;;16.40;14.60;;;;;;;10.25;72.21;101697.89;226967;1208;138808;-74
2021/09/05 21:32:52;;;;;;;19.30;16.60;;;;;;;10.15;72.51;101696.73;226960;1206;138991;-73
2021/09/05 21:37:54;;;;;;;21.20;17.90;;;;;;;10.09;72.51;101697.38;226885;1208;139562;-75
2021/09/05 21:42:57;;;;;;;21.60;16.70;;;;;;;9.98;72.70;101693.08;226821;1208;139103;-74
2021/09/05 21:47:59;;;;;;;20.10;15.70;;;;;;;9.97;72.40;101698.81;226932;1201;139115;-73
2021/09/05 21:53:02;;;;;;;18.70;14.40;;;;;;;9.95;71.85;101698.78;226874;1208;138618;-72
2021/09/05 21:58:04;;;;;;;17.10;14.30;;;;;;;9.78;73.23;101701.48;227657;1201;138774;-72
2021/09/05 22:03:06;;;;;;;14.00;11.70;;;;;;;9.72;72.82;101700.50;226761;1209;139111;-73
2021/09/05 22:08:07;;;;;;;15.20;11.20;;;;;;;9.70;72.86;101705.80;227154;1200;139559;-73
2021/09/05 22:13:09;;;;;;;13.50;11.10;;;;;;;9.57;73.48;101709.52;226874;1208;139037;-74
2021/09/05 22:18:11;;;;;;;11.60;10.40;;;;;;;9.55;74.04;101709.13;226939;1200;138882;-74
2021/09/05 22:23:12;;;;;;;12.70;9.90;;;;;;;9.58;74.24;101713.35;226903;1208;139435;-74
2021/09/05 22:28:14;;;;;;;11.40;8.80;;;;;;;9.56;74.29;101716.29;226912;1201;138419;-75
2021/09/05 22:33:15;;;;;;;11.00;8.80;;;;;;;9.42;74.24;101717.16;226846;1209;139295;-73
2021/09/05 22:38:19;;;;;;;9.40;8.40;;;;;;;9.38;74.01;101712.02;226955;1206;138309;-74
2021/09/05 22:43:24;;;;;;;11.10;7.80;;;;;;;9.29;74.37;101711.07;226918;1209;138023;-70
2021/09/05 22:48:25;;;;;;;9.50;8.30;;;;;;;9.27;74.52;101711.45;227033;1208;138419;-73
2021/09/05 22:53:30;;;;;;;10.50;8.00;;;;;;;9.47;73.40;101710.10;226887;1208;138843;-73
2021/09/05 22:58:32;;;;;;;8.70;7.80;;;;;;;9.53;72.85;101708.29;226951;1209;138522;-74
2021/09/05 23:03:33;;;;;;;9.50;8.10;;;;;;;9.37;74.18;101707.34;226953;1201;137930;-73
2021/09/05 23:08:35;;;;;;;8.60;7.60;;;;;;;9.29;74.61;101709.33;230168;1208;140623;-73
2021/09/05 23:13:37;;;;;;;7.30;6.60;;;;;;;9.22;75.09;101709.68;227934;1208;138209;-72
2021/09/05 23:18:39;;;;;;;8.30;6.60;;;;;;;9.24;73.44;101701.63;226881;1208;138363;-74
2021/09/05 23:23:41;;;;;;;7.70;6.50;;;;;;;9.15;74.42;101707.07;226897;1201;138351;-71
2021/09/05 23:28:43;;;;;;;7.10;6.30;;;;;;;9.25;73.21;101701.88;227090;1201;140796;-73
2021/09/05 23:33:44;;;;;;;8.70;7.50;;;;;;;9.34;72.42;101700.17;226862;1208;138405;-72
2021/09/05 23:38:46;;;;;;;8.80;6.50;;;;;;;9.37;71.98;101701.39;226916;1208;137983;-73
2021/09/05 23:43:47;;;;;;;8.40;5.50;;;;;;;9.24;71.66;101696.53;226923;1208;138001;-77
2021/09/05 23:48:49;;;;;;;5.50;5.00;;;;;;;9.01;72.31;101699.42;226968;1208;138326;-74
2021/09/05 23:53:51;;;;;;;5.50;4.90;;;;;;;8.92;73.07;101699.88;226957;1201;140970;-74
2021/09/05 23:58:52;;;;;;;5.00;4.40;;;;;;;8.83;73.65;101703.88;226893;1209;138434;-74
